sensor_id;sensor_type;location;lat;lon;timestamp;temperature;humidity
65573;SHT30;52214;50.940;13.996;2022-09-09T00:00:55;12.32;99.25
65573;SHT30;52214;50.940;13.996;2022-09-09T00:03:26;12.19;99.05
65573;SHT30;52214;50.940;13.996;2022-09-09T00:08:25;11.93;99.09
65573;SHT30;52214;50.940;13.996;2022-09-09T00:10:59;11.94;99.42
65573;SHT30;52214;50.940;13.996;2022-09-09T00:16:26;11.99;99.30
65573;SHT30;52214;50.940;13.996;2022-09-09T00:19:15;11.90;99.88
65573;SHT30;52214;50.940;13.996;2022-09-09T00:22:14;12.05;99.84
65573;SHT30;52214;50.940;13.996;2022-09-09T00:29:57;12.05;99.99
65573;SHT30;52214;50.940;13.996;2022-09-09T00:32:28;11.85;99.99
65573;SHT30;52214;50.940;13.996;2022-09-09T00:35:00;11.93;99.39
65573;SHT30;52214;50.940;13.996;2022-09-09T00:37:28;11.83;99.21
65573;SHT30;52214;50.940;13.996;2022-09-09T00:39:59;11.69;99.53
65573;SHT30;52214;50.940;13.996;2022-09-09T00:42:41;11.66;99.99
65573;SHT30;52214;50.940;13.996;2022-09-09T00:45:19;11.57;99.99
65573;SHT30;52214;50.940;13.996;2022-09-09T00:47:53;11.53;99.99
65573;SHT30;52214;50.940;13.996;2022-09-09T00:50:53;11.50;99.99
65573;SHT30;52214;50.940;13.996;2022-09-09T00:54:15;11.52;99.99
65573;SHT30;52214;50.940;13.996;2022-09-09T00:57:12;11.60;99.99
65573;SHT30;52214;50.940;13.996;2022-09-09T00:59:52;11.63;99.99
65573;SHT30;52214;50.940;13.996;2022-09-09T01:05:07;11.69;99.99
65573;SHT30;52214;50.940;13.996;2022-09-09T01:07:36;11.64;99.99
65573;SHT30;52214;50.940;13.996;2022-09-09T01:10:07;11.60;99.99
65573;SHT30;52214;50.940;13.996;2022-09-09T01:12:42;11.56;99.99
65573;SHT30;52214;50.940;13.996;2022-09-09T01:15:17;11.47;99.99
65573;SHT30;52214;50.940;13.996;2022-09-09T01:28:16;11.30;99.99
65573;SHT30;52214;50.940;13.996;2022-09-09T01:30:44;11.23;99.99
65573;SHT30;52214;50.940;13.996;2022-09-09T01:33:14;11.16;99.99
65573;SHT30;52214;50.940;13.996;2022-09-09T01:38:29;11.14;99.99
65573;SHT30;52214;50.940;13.996;2022-09-09T01:40:56;11.16;99.99
65573;SHT30;52214;50.940;13.996;2022-09-09T01:43:24;11.21;99.99
65573;SHT30;52214;50.940;13.996;2022-09-09T01:45:53;11.21;99.99
65573;SHT30;52214;50.940;13.996;2022-09-09T01:48:21;11.29;99.99
65573;SHT30;52214;50.940;13.996;2022-09-09T01:50:48;11.29;99.99
65573;SHT30;52214;50.940;13.996;2022-09-09T01:53:14;11.32;99.99
65573;SHT30;52214;50.940;13.996;2022-09-09T01:55:43;11.30;99.99
65573;SHT30;52214;50.940;13.996;2022-09-09T01:58:21;11.33;99.99
65573;SHT30;52214;50.940;13.996;2022-09-09T02:01:10;11.15;99.99
65573;SHT30;52214;50.940;13.996;2022-09-09T02:03:44;11.14;99.99
65573;SHT30;52214;50.940;13.996;2022-09-09T02:06:31;11.08;99.99
65573;SHT30;52214;50.940;13.996;2022-09-09T02:09:01;11.07;99.99
65573;SHT30;52214;50.940;13.996;2022-09-09T02:11:29;11.02;99.99
65573;SHT30;52214;50.940;13.996;2022-09-09T02:14:00;10.98;99.99
65573;SHT30;52214;50.940;13.996;2022-09-09T02:16:50;11.01;99.99
65573;SHT30;52214;50.940;13.996;2022-09-09T02:19:25;11.16;99.99
65573;SHT30;52214;50.940;13.996;2022-09-09T02:21:54;11.35;99.99
65573;SHT30;52214;50.940;13.996;2022-09-09T02:24:21;11.30;99.99
65573;SHT30;52214;50.940;13.996;2022-09-09T02:26:51;11.22;99.99
65573;SHT30;52214;50.940;13.996;2022-09-09T02:29:27;11.16;99.99
65573;SHT30;52214;50.940;13.996;2022-09-09T02:31:57;11.10;99.99
65573;SHT30;52214;50.940;13.996;2022-09-09T02:34:23;11.08;99.99
65573;SHT30;52214;50.940;13.996;2022-09-09T02:36:51;11.01;99.99
65573;SHT30;52214;50.940;13.996;2022-09-09T02:39:18;11.07;99.99
65573;SHT30;52214;50.940;13.996;2022-09-09T02:41:44;10.98;99.99
65573;SHT30;52214;50.940;13.996;2022-09-09T02:44:15;11.02;99.99
65573;SHT30;52214;50.940;13.996;2022-09-09T02:52:18;10.90;99.99
65573;SHT30;52214;50.940;13.996;2022-09-09T02:54:50;10.93;99.99
65573;SHT30;52214;50.940;13.996;2022-09-09T02:57:27;10.85;99.99
65573;SHT30;52214;50.940;13.996;2022-09-09T02:59:53;10.81;99.99
65573;SHT30;52214;50.940;13.996;2022-09-09T03:02:22;10.80;99.99
65573;SHT30;52214;50.940;13.996;2022-09-09T03:04:48;10.80;99.99
65573;SHT30;52214;50.940;13.996;2022-09-09T03:07:20;10.74;99.99
65573;SHT30;52214;50.940;13.996;2022-09-09T03:09:46;10.74;99.99
65573;SHT30;52214;50.940;13.996;2022-09-09T03:12:12;10.68;99.99
65573;SHT30;52214;50.940;13.996;2022-09-09T03:14:38;10.61;99.99
65573;SHT30;52214;50.940;13.996;2022-09-09T03:17:05;10.68;99.99
65573;SHT30;52214;50.940;13.996;2022-09-09T03:19:31;10.64;99.99
65573;SHT30;52214;50.940;13.996;2022-09-09T03:21:57;10.55;99.99
65573;SHT30;52214;50.940;13.996;2022-09-09T03:24:24;10.50;99.99
65573;SHT30;52214;50.940;13.996;2022-09-09T03:26:49;10.50;99.99
65573;SHT30;52214;50.940;13.996;2022-09-09T03:29:15;10.46;99.99
65573;SHT30;52214;50.940;13.996;2022-09-09T03:31:41;10.43;99.99
65573;SHT30;52214;50.940;13.996;2022-09-09T03:34:08;10.42;99.99
65573;SHT30;52214;50.940;13.996;2022-09-09T03:36:34;10.43;99.99
65573;SHT30;52214;50.940;13.996;2022-09-09T03:38:59;10.47;99.99
65573;SHT30;52214;50.940;13.996;2022-09-09T03:41:26;10.61;99.99
65573;SHT30;52214;50.940;13.996;2022-09-09T03:43:53;10.80;99.99
65573;SHT30;52214;50.940;13.996;2022-09-09T03:46:20;10.95;99.99
65573;SHT30;52214;50.940;13.996;2022-09-09T03:48:46;10.98;99.99
65573;SHT30;52214;50.940;13.996;2022-09-09T03:51:12;11.00;99.99
65573;SHT30;52214;50.940;13.996;2022-09-09T03:53:38;10.98;99.99
65573;SHT30;52214;50.940;13.996;2022-09-09T03:56:04;10.98;99.99
65573;SHT30;52214;50.940;13.996;2022-09-09T03:58:33;11.01;99.99
65573;SHT30;52214;50.940;13.996;2022-09-09T04:01:03;11.08;99.99
65573;SHT30;52214;50.940;13.996;2022-09-09T04:03:30;11.08;99.99
65573;SHT30;52214;50.940;13.996;2022-09-09T04:05:57;11.05;99.99
65573;SHT30;52214;50.940;13.996;2022-09-09T04:08:23;11.04;99.99
65573;SHT30;52214;50.940;13.996;2022-09-09T04:10:53;11.01;99.99
65573;SHT30;52214;50.940;13.996;2022-09-09T04:13:24;11.01;99.99
65573;SHT30;52214;50.940;13.996;2022-09-09T04:15:53;11.00;99.99
65573;SHT30;52214;50.940;13.996;2022-09-09T04:18:19;11.05;99.99
65573;SHT30;52214;50.940;13.996;2022-09-09T04:20:47;11.07;99.99
65573;SHT30;52214;50.940;13.996;2022-09-09T04:23:13;11.14;99.99
65573;SHT30;52214;50.940;13.996;2022-09-09T04:25:44;11.16;99.99
65573;SHT30;52214;50.940;13.996;2022-09-09T04:28:10;11.22;99.99
65573;SHT30;52214;50.940;13.996;2022-09-09T04:30:35;11.19;99.99
65573;SHT30;52214;50.940;13.996;2022-09-09T04:33:01;11.19;99.99
65573;SHT30;52214;50.940;13.996;2022-09-09T04:35:26;11.22;99.99
65573;SHT30;52214;50.940;13.996;2022-09-09T04:37:52;11.22;99.99
65573;SHT30;52214;50.940;13.996;2022-09-09T04:40:17;11.25;99.99
65573;SHT30;52214;50.940;13.996;2022-09-09T04:42:43;11.19;99.99
65573;SHT30;52214;50.940;13.996;2022-09-09T04:45:09;11.14;99.99
65573;SHT30;52214;50.940;13.996;2022-09-09T04:47:36;11.19;99.99
65573;SHT30;52214;50.940;13.996;2022-09-09T04:50:02;11.29;99.99
65573;SHT30;52214;50.940;13.996;2022-09-09T04:52:28;11.29;99.99
65573;SHT30;52214;50.940;13.996;2022-09-09T04:54:53;11.35;99.99
65573;SHT30;52214;50.940;13.996;2022-09-09T04:57:19;11.33;99.99
65573;SHT30;52214;50.940;13.996;2022-09-09T04:59:45;11.36;99.99
65573;SHT30;52214;50.940;13.996;2022-09-09T05:02:11;11.38;99.99
65573;SHT30;52214;50.940;13.996;2022-09-09T05:04:37;11.47;99.99
65573;SHT30;52214;50.940;13.996;2022-09-09T05:07:02;11.56;99.99
65573;SHT30;52214;50.940;13.996;2022-09-09T05:09:28;11.63;99.99
65573;SHT30;52214;50.940;13.996;2022-09-09T05:11:54;11.64;99.99
65573;SHT30;52214;50.940;13.996;2022-09-09T05:14:20;11.69;99.99
65573;SHT30;52214;50.940;13.996;2022-09-09T05:16:45;11.69;99.99
65573;SHT30;52214;50.940;13.996;2022-09-09T05:19:12;11.71;99.99
65573;SHT30;52214;50.940;13.996;2022-09-09T05:21:38;11.77;99.99
65573;SHT30;52214;50.940;13.996;2022-09-09T05:24:03;11.88;99.99
65573;SHT30;52214;50.940;13.996;2022-09-09T05:26:29;12.01;99.99
65573;SHT30;52214;50.940;13.996;2022-09-09T05:28:55;12.05;99.99
65573;SHT30;52214;50.940;13.996;2022-09-09T05:31:21;12.10;99.99
65573;SHT30;52214;50.940;13.996;2022-09-09T05:33:47;12.14;99.99
65573;SHT30;52214;50.940;13.996;2022-09-09T05:36:19;12.24;99.99
65573;SHT30;52214;50.940;13.996;2022-09-09T05:38:45;12.35;99.99
65573;SHT30;52214;50.940;13.996;2022-09-09T05:41:12;12.38;99.99
65573;SHT30;52214;50.940;13.996;2022-09-09T05:43:38;12.46;99.99
65573;SHT30;52214;50.940;13.996;2022-09-09T05:46:09;12.55;99.99
65573;SHT30;52214;50.940;13.996;2022-09-09T05:48:38;12.67;99.99
65573;SHT30;52214;50.940;13.996;2022-09-09T05:51:05;12.61;99.99
65573;SHT30;52214;50.940;13.996;2022-09-09T05:53:34;12.67;99.99
65573;SHT30;52214;50.940;13.996;2022-09-09T05:56:11;12.85;99.99
65573;SHT30;52214;50.940;13.996;2022-09-09T05:58:38;12.85;99.99
65573;SHT30;52214;50.940;13.996;2022-09-09T06:01:30;12.84;99.99
65573;SHT30;52214;50.940;13.996;2022-09-09T06:03:56;12.88;99.99
65573;SHT30;52214;50.940;13.996;2022-09-09T06:06:24;13.07;99.99
65573;SHT30;52214;50.940;13.996;2022-09-09T06:08:55;13.16;99.99
65573;SHT30;52214;50.940;13.996;2022-09-09T06:11:29;13.23;99.99
65573;SHT30;52214;50.940;13.996;2022-09-09T06:13:58;13.25;99.99
65573;SHT30;52214;50.940;13.996;2022-09-09T06:16:26;13.45;99.99
65573;SHT30;52214;50.940;13.996;2022-09-09T06:18:53;13.56;99.99
65573;SHT30;52214;50.940;13.996;2022-09-09T06:21:23;13.81;99.99
65573;SHT30;52214;50.940;13.996;2022-09-09T06:23:49;13.91;99.99
65573;SHT30;52214;50.940;13.996;2022-09-09T06:26:21;14.05;99.78
65573;SHT30;52214;50.940;13.996;2022-09-09T06:28:49;14.17;99.61
65573;SHT30;52214;50.940;13.996;2022-09-09T06:31:17;14.32;98.93
65573;SHT30;52214;50.940;13.996;2022-09-09T06:33:43;14.40;98.41
65573;SHT30;52214;50.940;13.996;2022-09-09T06:36:14;14.45;98.15
65573;SHT30;52214;50.940;13.996;2022-09-09T06:38:43;14.47;98.87
65573;SHT30;52214;50.940;13.996;2022-09-09T06:41:10;14.62;98.62
65573;SHT30;52214;50.940;13.996;2022-09-09T06:43:36;14.70;98.45
65573;SHT30;52214;50.940;13.996;2022-09-09T06:46:05;14.77;98.81
65573;SHT30;52214;50.940;13.996;2022-09-09T06:48:31;14.74;98.79
65573;SHT30;52214;50.940;13.996;2022-09-09T06:51:05;14.85;98.60
65573;SHT30;52214;50.940;13.996;2022-09-09T06:53:33;14.91;98.96
65573;SHT30;52214;50.940;13.996;2022-09-09T06:58:39;15.17;98.70
65573;SHT30;52214;50.940;13.996;2022-09-09T07:01:14;15.18;98.33
65573;SHT30;52214;50.940;13.996;2022-09-09T07:03:41;15.29;98.05
65573;SHT30;52214;50.940;13.996;2022-09-09T07:06:14;15.38;97.95
65573;SHT30;52214;50.940;13.996;2022-09-09T07:08:42;15.34;97.77
65573;SHT30;52214;50.940;13.996;2022-09-09T07:11:08;15.50;97.65
65573;SHT30;52214;50.940;13.996;2022-09-09T07:13:34;15.65;97.46
65573;SHT30;52214;50.940;13.996;2022-09-09T07:16:15;16.05;96.48
65573;SHT30;52214;50.940;13.996;2022-09-09T07:18:41;16.65;95.79
65573;SHT30;52214;50.940;13.996;2022-09-09T07:21:07;17.22;93.19
65573;SHT30;52214;50.940;13.996;2022-09-09T07:23:34;17.42;92.63
65573;SHT30;52214;50.940;13.996;2022-09-09T07:26:02;17.48;92.83
65573;SHT30;52214;50.940;13.996;2022-09-09T07:28:27;17.43;92.52
65573;SHT30;52214;50.940;13.996;2022-09-09T07:30:56;17.43;92.36
65573;SHT30;52214;50.940;13.996;2022-09-09T07:33:23;17.56;91.48
65573;SHT30;52214;50.940;13.996;2022-09-09T07:35:50;17.69;92.28
65573;SHT30;52214;50.940;13.996;2022-09-09T07:38:16;17.89;91.56
65573;SHT30;52214;50.940;13.996;2022-09-09T07:40:41;18.14;91.21
65573;SHT30;52214;50.940;13.996;2022-09-09T07:43:07;18.46;90.10
65573;SHT30;52214;50.940;13.996;2022-09-09T07:45:33;18.70;89.16
65573;SHT30;52214;50.940;13.996;2022-09-09T07:48:00;19.25;88.21
65573;SHT30;52214;50.940;13.996;2022-09-09T07:50:26;19.67;85.83
65573;SHT30;52214;50.940;13.996;2022-09-09T07:52:52;19.80;85.24
65573;SHT30;52214;50.940;13.996;2022-09-09T07:55:20;19.61;83.77
65573;SHT30;52214;50.940;13.996;2022-09-09T07:57:45;19.63;84.98
65573;SHT30;52214;50.940;13.996;2022-09-09T08:00:11;19.86;82.61
65573;SHT30;52214;50.940;13.996;2022-09-09T08:02:37;19.80;83.16
65573;SHT30;52214;50.940;13.996;2022-09-09T08:05:03;19.83;82.84
65573;SHT30;52214;50.940;13.996;2022-09-09T08:07:29;19.77;84.16
65573;SHT30;52214;50.940;13.996;2022-09-09T08:09:55;19.61;83.57
65573;SHT30;52214;50.940;13.996;2022-09-09T08:12:21;19.89;84.48
65573;SHT30;52214;50.940;13.996;2022-09-09T08:14:46;20.03;82.91
65573;SHT30;52214;50.940;13.996;2022-09-09T08:17:12;20.53;82.49
65573;SHT30;52214;50.940;13.996;2022-09-09T08:19:38;20.62;82.45
65573;SHT30;52214;50.940;13.996;2022-09-09T08:22:04;20.56;82.15
65573;SHT30;52214;50.940;13.996;2022-09-09T08:24:29;20.62;82.60
65573;SHT30;52214;50.940;13.996;2022-09-09T08:26:55;20.57;83.56
65573;SHT30;52214;50.940;13.996;2022-09-09T08:29:22;20.59;83.44
65573;SHT30;52214;50.940;13.996;2022-09-09T08:31:56;20.45;82.25
65573;SHT30;52214;50.940;13.996;2022-09-09T08:34:23;20.53;83.99
65573;SHT30;52214;50.940;13.996;2022-09-09T08:36:51;20.68;82.66
65573;SHT30;52214;50.940;13.996;2022-09-09T08:39:18;20.79;82.10
65573;SHT30;52214;50.940;13.996;2022-09-09T08:50:21;19.83;86.06
65573;SHT30;52214;50.940;13.996;2022-09-09T08:53:22;19.52;86.83
65573;SHT30;52214;50.940;13.996;2022-09-09T08:58:19;19.93;86.45
65573;SHT30;52214;50.940;13.996;2022-09-09T09:03:38;19.45;88.92
65573;SHT30;52214;50.940;13.996;2022-09-09T09:09:02;19.46;89.03
65573;SHT30;52214;50.940;13.996;2022-09-09T09:11:47;19.34;85.23
65573;SHT30;52214;50.940;13.996;2022-09-09T09:14:24;19.63;84.57
65573;SHT30;52214;50.940;13.996;2022-09-09T09:16:58;19.66;84.00
65573;SHT30;52214;50.940;13.996;2022-09-09T09:19:26;20.00;85.00
65573;SHT30;52214;50.940;13.996;2022-09-09T09:28:00;19.73;82.27
65573;SHT30;52214;50.940;13.996;2022-09-09T09:30:29;19.74;81.31
65573;SHT30;52214;50.940;13.996;2022-09-09T09:33:03;19.73;82.29
65573;SHT30;52214;50.940;13.996;2022-09-09T09:35:31;19.34;82.55
65573;SHT30;52214;50.940;13.996;2022-09-09T09:37:57;19.36;85.32
65573;SHT30;52214;50.940;13.996;2022-09-09T09:40:22;19.04;82.35
65573;SHT30;52214;50.940;13.996;2022-09-09T09:42:59;18.67;82.67
65573;SHT30;52214;50.940;13.996;2022-09-09T09:48:00;18.15;86.37
65573;SHT30;52214;50.940;13.996;2022-09-09T09:50:27;18.11;85.39
65573;SHT30;52214;50.940;13.996;2022-09-09T09:52:55;17.74;87.85
65573;SHT30;52214;50.940;13.996;2022-09-09T09:55:21;17.87;89.75
65573;SHT30;52214;50.940;13.996;2022-09-09T09:57:48;17.90;90.54
65573;SHT30;52214;50.940;13.996;2022-09-09T10:00:23;18.15;84.63
65573;SHT30;52214;50.940;13.996;2022-09-09T10:02:49;17.89;90.18
65573;SHT30;52214;50.940;13.996;2022-09-09T10:05:24;18.42;88.27
65573;SHT30;52214;50.940;13.996;2022-09-09T10:16:50;19.34;86.48
65573;SHT30;52214;50.940;13.996;2022-09-09T10:19:34;20.04;85.13
65573;SHT30;52214;50.940;13.996;2022-09-09T10:25:56;19.83;89.90
65573;SHT30;52214;50.940;13.996;2022-09-09T10:28:33;20.21;90.67
65573;SHT30;52214;50.940;13.996;2022-09-09T10:34:02;19.87;89.16
65573;SHT30;52214;50.940;13.996;2022-09-09T10:36:31;19.80;89.24
65573;SHT30;52214;50.940;13.996;2022-09-09T10:39:00;20.48;88.90
65573;SHT30;52214;50.940;13.996;2022-09-09T10:41:56;20.79;87.68
65573;SHT30;52214;50.940;13.996;2022-09-09T10:55:24;23.71;79.75
65573;SHT30;52214;50.940;13.996;2022-09-09T10:57:57;24.82;76.61
65573;SHT30;52214;50.940;13.996;2022-09-09T11:00:39;24.89;76.87
65573;SHT30;52214;50.940;13.996;2022-09-09T11:03:18;23.61;77.10
65573;SHT30;52214;50.940;13.996;2022-09-09T11:05:48;22.54;80.89
65573;SHT30;52214;50.940;13.996;2022-09-09T11:08:26;22.62;81.62
65573;SHT30;52214;50.940;13.996;2022-09-09T11:13:42;22.86;81.23
65573;SHT30;52214;50.940;13.996;2022-09-09T11:16:24;23.81;75.48
65573;SHT30;52214;50.940;13.996;2022-09-09T11:18:57;25.28;73.58
65573;SHT30;52214;50.940;13.996;2022-09-09T11:21:30;26.50;70.85
65573;SHT30;52214;50.940;13.996;2022-09-09T11:24:04;27.72;66.30
65573;SHT30;52214;50.940;13.996;2022-09-09T11:27:14;28.24;63.59
65573;SHT30;52214;50.940;13.996;2022-09-09T11:29:52;27.99;64.58
65573;SHT30;52214;50.940;13.996;2022-09-09T12:03:48;21.49;80.74
65573;SHT30;52214;50.940;13.996;2022-09-09T12:08:48;22.44;73.07
65573;SHT30;52214;50.940;13.996;2022-09-09T12:11:25;22.58;73.41
65573;SHT30;52214;50.940;13.996;2022-09-09T12:13:56;22.68;71.33
65573;SHT30;52214;50.940;13.996;2022-09-09T12:16:36;21.88;73.06
65573;SHT30;52214;50.940;13.996;2022-09-09T12:21:46;21.38;77.87
65573;SHT30;52214;50.940;13.996;2022-09-09T12:24:25;21.18;76.35
65573;SHT30;52214;50.940;13.996;2022-09-09T12:26:58;20.63;81.29
65573;SHT30;52214;50.940;13.996;2022-09-09T12:32:10;19.72;90.30
65573;SHT30;52214;50.940;13.996;2022-09-09T12:34:41;18.70;90.82
65573;SHT30;52214;50.940;13.996;2022-09-09T12:40:05;18.42;89.65
65573;SHT30;52214;50.940;13.996;2022-09-09T12:42:32;18.83;80.47
65573;SHT30;52214;50.940;13.996;2022-09-09T12:45:03;18.90;88.33
65573;SHT30;52214;50.940;13.996;2022-09-09T12:47:35;19.25;89.19
65573;SHT30;52214;50.940;13.996;2022-09-09T12:50:02;19.38;85.94
65573;SHT30;52214;50.940;13.996;2022-09-09T12:52:34;20.68;83.30
65573;SHT30;52214;50.940;13.996;2022-09-09T12:55:02;21.35;85.22
65573;SHT30;52214;50.940;13.996;2022-09-09T12:57:34;21.44;77.72
65573;SHT30;52214;50.940;13.996;2022-09-09T13:00:16;20.38;80.14
65573;SHT30;52214;50.940;13.996;2022-09-09T13:02:56;20.27;88.18
65573;SHT30;52214;50.940;13.996;2022-09-09T13:05:36;21.24;85.79
65573;SHT30;52214;50.940;13.996;2022-09-09T13:08:04;21.69;84.64
65573;SHT30;52214;50.940;13.996;2022-09-09T13:10:35;20.59;88.12
65573;SHT30;52214;50.940;13.996;2022-09-09T13:13:01;20.91;88.50
65573;SHT30;52214;50.940;13.996;2022-09-09T13:15:29;20.76;86.07
65573;SHT30;52214;50.940;13.996;2022-09-09T13:17:57;20.56;88.40
65573;SHT30;52214;50.940;13.996;2022-09-09T13:20:26;20.49;88.74
65573;SHT30;52214;50.940;13.996;2022-09-09T13:22:53;20.56;89.95
65573;SHT30;52214;50.940;13.996;2022-09-09T13:25:25;20.42;90.67
65573;SHT30;52214;50.940;13.996;2022-09-09T13:33:05;19.76;93.74
65573;SHT30;52214;50.940;13.996;2022-09-09T13:35:31;19.70;94.13
65573;SHT30;52214;50.940;13.996;2022-09-09T13:37:58;19.73;93.69
65573;SHT30;52214;50.940;13.996;2022-09-09T13:40:25;19.51;90.99
65573;SHT30;52214;50.940;13.996;2022-09-09T13:42:54;19.72;95.41
65573;SHT30;52214;50.940;13.996;2022-09-09T13:45:23;19.83;94.96
65573;SHT30;52214;50.940;13.996;2022-09-09T13:47:53;19.94;92.80
65573;SHT30;52214;50.940;13.996;2022-09-09T13:50:28;20.00;93.35
65573;SHT30;52214;50.940;13.996;2022-09-09T13:52:57;19.76;92.11
65573;SHT30;52214;50.940;13.996;2022-09-09T13:55:27;19.90;94.29
65573;SHT30;52214;50.940;13.996;2022-09-09T13:58:01;19.90;94.88
65573;SHT30;52214;50.940;13.996;2022-09-09T14:00:32;20.00;95.86
65573;SHT30;52214;50.940;13.996;2022-09-09T14:02:58;19.79;94.38
65573;SHT30;52214;50.940;13.996;2022-09-09T14:05:26;19.76;94.52
65573;SHT30;52214;50.940;13.996;2022-09-09T14:07:52;19.58;95.67
65573;SHT30;52214;50.940;13.996;2022-09-09T14:10:18;19.73;96.45
65573;SHT30;52214;50.940;13.996;2022-09-09T14:12:43;19.77;96.34
65573;SHT30;52214;50.940;13.996;2022-09-09T14:15:11;20.04;95.97
65573;SHT30;52214;50.940;13.996;2022-09-09T14:17:37;20.22;94.81
65573;SHT30;52214;50.940;13.996;2022-09-09T14:20:06;20.35;93.74
65573;SHT30;52214;50.940;13.996;2022-09-09T14:22:35;20.65;94.56
65573;SHT30;52214;50.940;13.996;2022-09-09T14:25:02;21.85;87.06
65573;SHT30;52214;50.940;13.996;2022-09-09T14:27:27;21.83;85.31
65573;SHT30;52214;50.940;13.996;2022-09-09T14:29:53;22.35;83.41
65573;SHT30;52214;50.940;13.996;2022-09-09T14:32:19;22.66;76.62
65573;SHT30;52214;50.940;13.996;2022-09-09T14:34:46;22.34;77.14
65573;SHT30;52214;50.940;13.996;2022-09-09T14:37:16;21.90;81.87
65573;SHT30;52214;50.940;13.996;2022-09-09T14:39:42;21.61;83.95
65573;SHT30;52214;50.940;13.996;2022-09-09T14:42:10;21.52;88.74
65573;SHT30;52214;50.940;13.996;2022-09-09T14:44:37;20.99;83.63
65573;SHT30;52214;50.940;13.996;2022-09-09T14:47:04;21.04;81.84
65573;SHT30;52214;50.940;13.996;2022-09-09T14:49:30;20.45;84.43
65573;SHT30;52214;50.940;13.996;2022-09-09T14:51:56;20.21;88.91
65573;SHT30;52214;50.940;13.996;2022-09-09T14:54:22;20.03;87.39
65573;SHT30;52214;50.940;13.996;2022-09-09T14:56:48;20.16;82.99
65573;SHT30;52214;50.940;13.996;2022-09-09T14:59:14;19.97;81.36
65573;SHT30;52214;50.940;13.996;2022-09-09T15:01:39;19.84;84.89
65573;SHT30;52214;50.940;13.996;2022-09-09T15:04:05;20.00;81.19
65573;SHT30;52214;50.940;13.996;2022-09-09T15:06:33;19.74;83.46
65573;SHT30;52214;50.940;13.996;2022-09-09T15:08:59;19.69;83.57
65573;SHT30;52214;50.940;13.996;2022-09-09T15:11:31;19.24;84.64
65573;SHT30;52214;50.940;13.996;2022-09-09T15:13:58;19.63;79.34
65573;SHT30;52214;50.940;13.996;2022-09-09T15:16:26;19.14;82.98
65573;SHT30;52214;50.940;13.996;2022-09-09T15:18:54;19.06;81.55
65573;SHT30;52214;50.940;13.996;2022-09-09T15:21:22;19.00;84.45
65573;SHT30;52214;50.940;13.996;2022-09-09T15:23:48;18.57;89.32
65573;SHT30;52214;50.940;13.996;2022-09-09T15:26:15;18.28;91.70
65573;SHT30;52214;50.940;13.996;2022-09-09T15:28:41;18.28;89.97
65573;SHT30;52214;50.940;13.996;2022-09-09T15:31:29;18.08;91.15
65573;SHT30;52214;50.940;13.996;2022-09-09T15:33:57;18.01;92.80
65573;SHT30;52214;50.940;13.996;2022-09-09T15:36:39;18.12;93.88
65573;SHT30;52214;50.940;13.996;2022-09-09T15:39:08;17.98;88.15
65573;SHT30;52214;50.940;13.996;2022-09-09T15:41:35;17.79;89.32
65573;SHT30;52214;50.940;13.996;2022-09-09T15:44:01;17.73;89.88
65573;SHT30;52214;50.940;13.996;2022-09-09T15:46:38;17.61;89.72
65573;SHT30;52214;50.940;13.996;2022-09-09T15:49:09;17.49;90.50
65573;SHT30;52214;50.940;13.996;2022-09-09T15:51:36;17.29;92.61
65573;SHT30;52214;50.940;13.996;2022-09-09T15:54:02;17.29;92.37
65573;SHT30;52214;50.940;13.996;2022-09-09T15:56:29;17.21;93.77
65573;SHT30;52214;50.940;13.996;2022-09-09T15:58:59;17.22;95.91
65573;SHT30;52214;50.940;13.996;2022-09-09T16:01:26;17.25;96.98
65573;SHT30;52214;50.940;13.996;2022-09-09T16:03:52;17.27;95.85
65573;SHT30;52214;50.940;13.996;2022-09-09T16:06:20;17.12;93.22
65573;SHT30;52214;50.940;13.996;2022-09-09T16:08:51;17.38;95.20
65573;SHT30;52214;50.940;13.996;2022-09-09T16:11:22;17.17;96.99
65573;SHT30;52214;50.940;13.996;2022-09-09T16:13:49;17.04;97.29
65573;SHT30;52214;50.940;13.996;2022-09-09T16:16:18;16.99;97.74
65573;SHT30;52214;50.940;13.996;2022-09-09T16:18:46;16.93;98.35
65573;SHT30;52214;50.940;13.996;2022-09-09T16:23:45;16.88;99.21
65573;SHT30;52214;50.940;13.996;2022-09-09T16:26:14;16.69;99.06
65573;SHT30;52214;50.940;13.996;2022-09-09T16:28:40;16.74;99.73
65573;SHT30;52214;50.940;13.996;2022-09-09T16:31:17;17.04;97.72
65573;SHT30;52214;50.940;13.996;2022-09-09T16:33:44;16.77;98.58
65573;SHT30;52214;50.940;13.996;2022-09-09T16:36:31;16.66;99.60
65573;SHT30;52214;50.940;13.996;2022-09-09T16:39:01;16.59;97.72
65573;SHT30;52214;50.940;13.996;2022-09-09T16:41:29;16.53;98.90
65573;SHT30;52214;50.940;13.996;2022-09-09T16:43:59;16.35;98.42
65573;SHT30;52214;50.940;13.996;2022-09-09T16:46:26;16.48;98.65
65573;SHT30;52214;50.940;13.996;2022-09-09T16:48:53;16.42;99.20
65573;SHT30;52214;50.940;13.996;2022-09-09T16:51:23;16.41;99.00
65573;SHT30;52214;50.940;13.996;2022-09-09T16:53:49;16.73;96.27
65573;SHT30;52214;50.940;13.996;2022-09-09T16:56:20;16.81;98.11
65573;SHT30;52214;50.940;13.996;2022-09-09T16:59:00;17.04;98.14
65573;SHT30;52214;50.940;13.996;2022-09-09T17:01:28;17.14;98.76
65573;SHT30;52214;50.940;13.996;2022-09-09T17:03:59;17.24;98.76
65573;SHT30;52214;50.940;13.996;2022-09-09T17:06:27;17.28;98.07
65573;SHT30;52214;50.940;13.996;2022-09-09T17:09:00;17.34;97.92
65573;SHT30;52214;50.940;13.996;2022-09-09T17:11:27;17.36;97.28
65573;SHT30;52214;50.940;13.996;2022-09-09T17:13:54;17.29;98.44
65573;SHT30;52214;50.940;13.996;2022-09-09T17:16:21;17.21;98.27
65573;SHT30;52214;50.940;13.996;2022-09-09T17:18:48;17.08;98.05
65573;SHT30;52214;50.940;13.996;2022-09-09T17:21:15;16.93;98.63
65573;SHT30;52214;50.940;13.996;2022-09-09T17:23:42;16.85;99.32
65573;SHT30;52214;50.940;13.996;2022-09-09T17:26:10;16.73;98.76
65573;SHT30;52214;50.940;13.996;2022-09-09T17:28:37;16.66;98.88
65573;SHT30;52214;50.940;13.996;2022-09-09T17:31:04;16.63;98.92
65573;SHT30;52214;50.940;13.996;2022-09-09T17:33:36;16.53;98.96
65573;SHT30;52214;50.940;13.996;2022-09-09T17:36:17;16.48;99.39
65573;SHT30;52214;50.940;13.996;2022-09-09T17:38:44;16.39;99.98
65573;SHT30;52214;50.940;13.996;2022-09-09T17:41:13;16.29;99.99
65573;SHT30;52214;50.940;13.996;2022-09-09T17:43:39;16.22;99.42
65573;SHT30;52214;50.940;13.996;2022-09-09T17:48:34;16.14;99.39
65573;SHT30;52214;50.940;13.996;2022-09-09T17:51:04;16.17;99.57
65573;SHT30;52214;50.940;13.996;2022-09-09T17:53:30;16.15;99.99